createdAt,value
2018-06-07T00:00:17.289Z,1014.48
2018-06-07T00:01:17.287Z,1014.47
2018-06-07T00:02:17.287Z,1014.50
2018-06-07T00:03:17.290Z,1014.48
2018-06-07T00:04:17.285Z,1014.47
2018-06-07T00:05:17.286Z,1014.43
2018-06-07T00:06:17.286Z,1014.44
2018-06-07T00:07:17.292Z,1014.39
2018-06-07T00:08:17.289Z,1014.43
2018-06-07T00:09:17.288Z,1014.38
2018-06-07T00:10:17.284Z,1014.40
2018-06-07T00:11:17.282Z,1014.38
2018-06-07T00:12:17.285Z,1014.37
2018-06-07T00:13:17.284Z,1014.31
2018-06-07T00:14:17.282Z,1014.30
2018-06-07T00:15:17.290Z,1014.32
2018-06-07T00:16:17.288Z,1014.33
2018-06-07T00:17:17.281Z,1014.34
2018-06-07T00:18:17.281Z,1014.28
2018-06-07T00:19:17.280Z,1014.31
2018-06-07T00:20:17.279Z,1014.32
2018-06-07T00:21:17.280Z,1014.31
2018-06-07T00:22:17.278Z,1014.35
2018-06-07T00:23:17.279Z,1014.32
2018-06-07T00:24:17.281Z,1014.34
2018-06-07T00:25:17.276Z,1014.36
2018-06-07T00:26:17.276Z,1014.33
2018-06-07T00:27:17.276Z,1014.37
2018-06-07T00:28:17.278Z,1014.37
2018-06-07T00:29:17.276Z,1014.35
2018-06-07T00:30:17.274Z,1014.35
2018-06-07T00:31:17.277Z,1014.38
2018-06-07T00:32:17.273Z,1014.41
2018-06-07T00:33:17.270Z,1014.38
2018-06-07T00:34:17.273Z,1014.42
2018-06-07T00:35:17.272Z,1014.41
2018-06-07T00:36:17.270Z,1014.40
2018-06-07T00:37:17.271Z,1014.42
2018-06-07T00:38:17.271Z,1014.42
2018-06-07T00:39:17.316Z,1014.41
2018-06-07T00:40:17.268Z,1014.40
2018-06-07T00:41:17.271Z,1014.40
2018-06-07T00:42:17.269Z,1014.37
2018-06-07T00:43:17.286Z,1014.39
2018-06-07T00:44:17.267Z,1014.33
2018-06-07T00:45:17.266Z,1014.34
2018-06-07T00:46:17.281Z,1014.35
2018-06-07T00:47:17.266Z,1014.36
2018-06-07T00:48:17.264Z,1014.32
2018-06-07T00:49:17.263Z,1014.29
2018-06-07T00:50:17.268Z,1014.29
2018-06-07T00:51:17.262Z,1014.28
2018-06-07T00:52:17.264Z,1014.30
2018-06-07T00:53:17.262Z,1014.39
2018-06-07T00:54:17.261Z,1014.30
2018-06-07T00:55:17.256Z,1014.33
2018-06-07T00:56:17.260Z,1014.32
2018-06-07T00:57:17.263Z,1014.34
2018-06-07T00:58:17.258Z,1014.31
2018-06-07T00:59:17.256Z,1014.32
2018-06-07T01:00:17.258Z,1014.31
2018-06-07T01:01:17.261Z,1014.36
2018-06-07T01:02:17.254Z,1014.31
2018-06-07T01:03:17.259Z,1014.30
2018-06-07T01:04:17.256Z,1014.26
2018-06-07T01:05:17.251Z,1014.27
2018-06-07T01:06:17.252Z,1014.27
2018-06-07T01:07:17.252Z,1014.26
2018-06-07T01:08:17.252Z,1014.21
2018-06-07T01:09:17.248Z,1014.23
2018-06-07T01:10:17.251Z,1014.23
2018-06-07T01:11:17.246Z,1014.16
2018-06-07T01:12:17.246Z,1014.15
2018-06-07T01:13:17.244Z,1014.16
2018-06-07T01:14:17.245Z,1014.19
2018-06-07T01:15:17.244Z,1014.21
2018-06-07T01:16:17.243Z,1014.18
2018-06-07T01:17:17.252Z,1014.17
2018-06-07T01:18:17.240Z,1014.13
2018-06-07T01:19:17.239Z,1014.13
2018-06-07T01:20:17.239Z,1014.12
2018-06-07T01:21:17.240Z,1014.13
2018-06-07T01:22:17.237Z,1014.12
2018-06-07T01:23:17.240Z,1014.13
2018-06-07T01:24:17.239Z,1014.14
2018-06-07T01:25:17.235Z,1014.16
2018-06-07T01:26:17.238Z,1014.15
2018-06-07T01:27:17.233Z,1014.14
2018-06-07T01:28:17.234Z,1014.16
2018-06-07T01:29:17.259Z,1014.19
2018-06-07T01:30:17.230Z,1014.14
2018-06-07T01:31:17.229Z,1014.18
2018-06-07T01:32:17.225Z,1014.16
2018-06-07T01:33:17.228Z,1014.15
2018-06-07T01:34:17.227Z,1014.14
2018-06-07T01:35:17.225Z,1014.14
2018-06-07T01:36:17.224Z,1014.11
2018-06-07T01:37:17.230Z,1014.12
2018-06-07T01:38:17.223Z,1014.08
2018-06-07T01:39:17.223Z,1014.11
2018-06-07T01:40:17.220Z,1014.09
2018-06-07T01:41:17.220Z,1014.11
2018-06-07T01:42:17.220Z,1014.06
2018-06-07T01:43:17.218Z,1014.07
2018-06-07T01:44:17.225Z,1014.04
2018-06-07T01:45:17.217Z,1014.03
2018-06-07T01:46:17.214Z,1014.06
2018-06-07T01:47:17.216Z,1014.02
2018-06-07T01:48:17.212Z,1014.02
2018-06-07T01:49:17.210Z,1014.02
2018-06-07T01:50:17.210Z,1013.98
2018-06-07T01:51:17.208Z,1013.95
2018-06-07T01:52:17.209Z,1013.97
2018-06-07T01:53:17.208Z,1013.93
2018-06-07T01:54:17.207Z,1013.92
2018-06-07T01:55:17.205Z,1013.94
2018-06-07T01:56:17.205Z,1013.88
2018-06-07T01:57:17.203Z,1013.90
2018-06-07T01:58:17.204Z,1013.85
2018-06-07T01:59:17.201Z,1013.91
2018-06-07T02:00:17.199Z,1013.89
2018-06-07T02:01:17.200Z,1013.86
2018-06-07T02:02:17.198Z,1013.91
2018-06-07T02:03:17.195Z,1013.86
2018-06-07T02:04:17.194Z,1013.87
2018-06-07T02:05:17.198Z,1013.84
2018-06-07T02:06:17.191Z,1013.80
2018-06-07T02:07:17.191Z,1013.82
2018-06-07T02:08:17.192Z,1013.82
2018-06-07T02:09:17.194Z,1013.80
2018-06-07T02:10:17.189Z,1013.76
2018-06-07T02:11:17.184Z,1013.76
2018-06-07T02:12:17.182Z,1013.77
2018-06-07T02:13:17.186Z,1013.75
2018-06-07T02:14:17.184Z,1013.73
2018-06-07T02:15:17.180Z,1013.75
2018-06-07T02:16:17.180Z,1013.71
2018-06-07T02:17:17.178Z,1013.71
2018-06-07T02:18:17.179Z,1013.77
2018-06-07T02:19:17.172Z,1013.74
2018-06-07T02:20:17.174Z,1013.73
2018-06-07T02:21:17.175Z,1013.76
2018-06-07T02:22:17.170Z,1013.76
2018-06-07T02:23:17.168Z,1013.75
2018-06-07T02:24:17.169Z,1013.77
2018-06-07T02:25:17.167Z,1013.76
2018-06-07T02:26:17.165Z,1013.79
2018-06-07T02:27:17.165Z,1013.76
2018-06-07T02:28:17.167Z,1013.77
2018-06-07T02:29:17.159Z,1013.82
2018-06-07T02:30:17.161Z,1013.80
2018-06-07T02:31:17.156Z,1013.81
2018-06-07T02:32:17.188Z,1013.82
2018-06-07T02:33:17.155Z,1013.81
2018-06-07T02:34:17.151Z,1013.86
2018-06-07T02:35:17.152Z,1013.81
2018-06-07T02:36:17.149Z,1013.84
2018-06-07T02:37:17.146Z,1013.84
2018-06-07T02:38:17.160Z,1013.84
2018-06-07T02:39:17.144Z,1013.85
2018-06-07T02:40:17.143Z,1013.83
2018-06-07T02:41:17.141Z,1013.86
2018-06-07T02:42:17.140Z,1013.84
2018-06-07T02:43:17.139Z,1013.83
2018-06-07T02:44:17.134Z,1013.86
2018-06-07T02:45:17.138Z,1013.85
2018-06-07T02:46:17.134Z,1013.83
2018-06-07T02:47:17.131Z,1013.90
2018-06-07T02:48:17.149Z,1013.87
2018-06-07T02:49:17.128Z,1013.90
2018-06-07T02:50:17.126Z,1013.89
2018-06-07T02:51:17.124Z,1013.94
2018-06-07T02:52:17.124Z,1013.95
2018-06-07T02:53:17.124Z,1013.86
2018-06-07T02:54:17.119Z,1013.92
2018-06-07T02:55:17.117Z,1013.89
2018-06-07T02:56:17.114Z,1013.91
2018-06-07T02:57:17.115Z,1013.91
2018-06-07T02:58:17.111Z,1013.89
2018-06-07T02:59:17.111Z,1013.90
2018-06-07T03:00:17.109Z,1013.93
2018-06-07T03:01:17.115Z,1013.90
2018-06-07T03:02:17.103Z,1013.93
2018-06-07T03:03:17.105Z,1013.89
2018-06-07T03:04:17.102Z,1013.90
2018-06-07T03:05:17.099Z,1013.89
2018-06-07T03:06:17.099Z,1013.88
2018-06-07T03:07:17.095Z,1013.87
2018-06-07T03:08:17.107Z,1013.93
2018-06-07T03:09:17.094Z,1013.97
2018-06-07T03:10:17.091Z,1013.96
2018-06-07T03:11:17.092Z,1013.93
2018-06-07T03:12:17.087Z,1013.95
2018-06-07T03:13:17.087Z,1013.97
2018-06-07T03:14:17.084Z,1013.96
2018-06-07T03:15:17.084Z,1013.96
2018-06-07T03:16:17.081Z,1013.96
2018-06-07T03:17:17.081Z,1014.01
2018-06-07T03:18:17.077Z,1014.02
2018-06-07T03:19:17.076Z,1014.00
2018-06-07T03:20:17.075Z,1014.07
2018-06-07T03:21:17.072Z,1014.05
2018-06-07T03:22:17.071Z,1014.04
2018-06-07T03:23:17.068Z,1014.07
2018-06-07T03:24:17.067Z,1014.12
2018-06-07T03:25:17.065Z,1014.13
2018-06-07T03:26:17.062Z,1014.19
2018-06-07T03:27:17.062Z,1014.17
2018-06-07T03:28:17.060Z,1014.18
2018-06-07T03:29:17.059Z,1014.19
2018-06-07T03:30:17.060Z,1014.19
2018-06-07T03:31:17.054Z,1014.24
2018-06-07T03:32:17.050Z,1014.22
2018-06-07T03:33:17.052Z,1014.19
2018-06-07T03:34:17.050Z,1014.21
2018-06-07T03:35:17.049Z,1014.20
2018-06-07T03:36:17.047Z,1014.23
2018-06-07T03:37:17.046Z,1014.20
2018-06-07T03:38:17.044Z,1014.21
2018-06-07T03:39:17.043Z,1014.18
2018-06-07T03:40:17.041Z,1014.20
2018-06-07T03:41:17.041Z,1014.23
2018-06-07T03:42:17.040Z,1014.24
2018-06-07T03:43:17.038Z,1014.22
2018-06-07T03:44:17.036Z,1014.24
2018-06-07T03:45:17.034Z,1014.28
2018-06-07T03:46:17.036Z,1014.28
2018-06-07T03:47:17.037Z,1014.28
2018-06-07T03:48:17.033Z,1014.28
2018-06-07T03:49:17.032Z,1014.30
2018-06-07T03:50:17.031Z,1014.29
2018-06-07T03:51:17.029Z,1014.33
2018-06-07T03:52:17.029Z,1014.31
2018-06-07T03:53:17.029Z,1014.33
2018-06-07T03:54:17.030Z,1014.34
2018-06-07T03:55:17.074Z,1014.35
2018-06-07T03:56:17.028Z,1014.36
2018-06-07T03:57:17.025Z,1014.36
2018-06-07T03:58:17.025Z,1014.38
2018-06-07T03:59:17.023Z,1014.37
2018-06-07T04:00:17.023Z,1014.29
2018-06-07T04:01:17.024Z,1014.33
2018-06-07T04:02:17.028Z,1014.34
2018-06-07T04:03:17.022Z,1014.38
2018-06-07T04:04:17.022Z,1014.34
2018-06-07T04:05:17.022Z,1014.35
2018-06-07T04:06:17.037Z,1014.34
2018-06-07T04:07:17.020Z,1014.35
2018-06-07T04:08:17.034Z,1014.37
2018-06-07T04:09:17.022Z,1014.38
2018-06-07T04:10:17.081Z,1014.39
2018-06-07T04:11:17.020Z,1014.35
2018-06-07T04:12:17.015Z,1014.39
2018-06-07T04:13:17.017Z,1014.34
2018-06-07T04:14:17.043Z,1014.37
2018-06-07T04:15:17.015Z,1014.36
2018-06-07T04:16:17.018Z,1014.37
2018-06-07T04:17:17.019Z,1014.38
2018-06-07T04:18:17.019Z,1014.41
2018-06-07T04:19:17.018Z,1014.37
2018-06-07T04:20:17.019Z,1014.41
2018-06-07T04:21:17.019Z,1014.43
2018-06-07T04:22:17.020Z,1014.44
2018-06-07T04:23:17.019Z,1014.45
2018-06-07T04:24:17.020Z,1014.45
2018-06-07T04:25:17.019Z,1014.46
2018-06-07T04:26:17.025Z,1014.46
2018-06-07T04:27:17.019Z,1014.45
2018-06-07T04:28:17.019Z,1014.44
2018-06-07T04:29:17.025Z,1014.46
2018-06-07T04:30:17.023Z,1014.46
2018-06-07T04:31:17.022Z,1014.42
2018-06-07T04:32:17.021Z,1014.45
2018-06-07T04:33:17.021Z,1014.42
2018-06-07T04:34:17.024Z,1014.47
2018-06-07T04:35:17.022Z,1014.45
2018-06-07T04:36:17.023Z,1014.49
2018-06-07T04:37:17.023Z,1014.53
2018-06-07T04:38:17.025Z,1014.58
2018-06-07T04:39:17.024Z,1014.54
2018-06-07T04:40:17.025Z,1014.57
2018-06-07T04:41:17.027Z,1014.49
2018-06-07T04:42:17.028Z,1014.58
2018-06-07T04:43:17.029Z,1014.57
2018-06-07T04:44:17.029Z,1014.56
2018-06-07T04:45:17.028Z,1014.59
2018-06-07T04:46:17.031Z,1014.55
2018-06-07T04:47:17.033Z,1014.57
2018-06-07T04:48:17.037Z,1014.57
2018-06-07T04:49:17.036Z,1014.59
2018-06-07T04:50:17.035Z,1014.57
2018-06-07T04:51:17.035Z,1014.64
2018-06-07T04:52:17.034Z,1014.60
2018-06-07T04:53:17.036Z,1014.64
2018-06-07T04:54:17.034Z,1014.66
2018-06-07T04:55:17.087Z,1014.64
2018-06-07T04:56:17.040Z,1014.70
2018-06-07T04:57:17.039Z,1014.70
2018-06-07T04:58:17.046Z,1014.68
2018-06-07T04:59:17.044Z,1014.67
2018-06-07T05:00:17.041Z,1014.71
2018-06-07T05:01:17.044Z,1014.68
2018-06-07T05:02:17.047Z,1014.66
2018-06-07T05:03:17.045Z,1014.66
2018-06-07T05:04:17.048Z,1014.71
2018-06-07T05:05:17.049Z,1014.73
2018-06-07T05:06:17.051Z,1014.72
2018-06-07T05:07:17.050Z,1014.72
2018-06-07T05:08:17.054Z,1014.74
2018-06-07T05:09:17.054Z,1014.67
2018-06-07T05:10:17.055Z,1014.69
2018-06-07T05:11:17.056Z,1014.70
2018-06-07T05:12:17.080Z,1014.71
2018-06-07T05:13:17.062Z,1014.68
2018-06-07T05:14:17.061Z,1014.68
2018-06-07T05:15:17.064Z,1014.72
2018-06-07T05:16:17.063Z,1014.72
2018-06-07T05:17:17.063Z,1014.72
2018-06-07T05:18:17.068Z,1014.73
2018-06-07T05:19:17.073Z,1014.74
2018-06-07T05:20:17.072Z,1014.70
2018-06-07T05:21:17.070Z,1014.77
2018-06-07T05:22:17.072Z,1014.72
2018-06-07T05:23:17.072Z,1014.74
2018-06-07T05:24:17.074Z,1014.74
2018-06-07T05:25:17.075Z,1014.78
2018-06-07T05:26:17.078Z,1014.77
2018-06-07T05:27:17.081Z,1014.81
2018-06-07T05:28:17.080Z,1014.78
2018-06-07T05:29:17.084Z,1014.80
2018-06-07T05:30:17.084Z,1014.79
2018-06-07T05:31:17.086Z,1014.84
2018-06-07T05:32:17.089Z,1014.82
2018-06-07T05:33:17.093Z,1014.84
2018-06-07T05:34:17.091Z,1014.83
2018-06-07T05:35:17.095Z,1014.84
2018-06-07T05:36:17.155Z,1014.83
2018-06-07T05:37:17.104Z,1014.89
2018-06-07T05:38:17.104Z,1014.84
2018-06-07T05:39:17.104Z,1014.89
2018-06-07T05:40:17.103Z,1014.85
2018-06-07T05:41:17.135Z,1014.89
2018-06-07T05:42:17.106Z,1014.93
2018-06-07T05:43:17.105Z,1014.89
2018-06-07T05:44:17.110Z,1014.95
2018-06-07T05:45:17.113Z,1014.88
2018-06-07T05:46:17.115Z,1014.90
2018-06-07T05:47:17.116Z,1014.90
2018-06-07T05:48:17.117Z,1014.93
2018-06-07T05:49:17.121Z,1014.91
2018-06-07T05:50:17.124Z,1014.91
2018-06-07T05:51:17.123Z,1014.93
2018-06-07T05:52:17.125Z,1014.95
2018-06-07T05:53:17.129Z,1014.97
2018-06-07T05:54:17.130Z,1014.98
2018-06-07T05:55:17.133Z,1015.01
2018-06-07T05:56:17.135Z,1014.99
2018-06-07T05:57:17.138Z,1015.00
2018-06-07T05:58:17.142Z,1015.05
2018-06-07T05:59:17.143Z,1014.99
2018-06-07T06:00:17.156Z,1014.99
2018-06-07T06:01:17.181Z,1014.97
2018-06-07T06:02:17.150Z,1015.02
2018-06-07T06:03:17.156Z,1014.98
2018-06-07T06:04:17.155Z,1014.94
2018-06-07T06:05:17.159Z,1014.91
2018-06-07T06:06:17.162Z,1014.88
2018-06-07T06:07:17.191Z,1014.89
2018-06-07T06:08:17.177Z,1014.90
2018-06-07T06:09:17.210Z,1014.89
2018-06-07T06:10:17.175Z,1014.84
2018-06-07T06:11:17.197Z,1014.86
2018-06-07T06:12:17.207Z,1014.88
2018-06-07T06:13:17.183Z,1014.86
2018-06-07T06:14:17.186Z,1014.90
2018-06-07T06:15:17.188Z,1014.89
2018-06-07T06:16:17.190Z,1014.90
2018-06-07T06:17:17.192Z,1014.93
2018-06-07T06:18:17.191Z,1014.96
2018-06-07T06:19:17.201Z,1014.96
2018-06-07T06:20:17.202Z,1014.89
2018-06-07T06:21:17.216Z,1014.88
2018-06-07T06:22:17.217Z,1014.91
2018-06-07T06:23:17.208Z,1014.91
2018-06-07T06:24:17.211Z,1014.87
2018-06-07T06:25:17.210Z,1014.89
2018-06-07T06:26:17.217Z,1014.85
2018-06-07T06:27:17.219Z,1014.80
2018-06-07T06:28:17.236Z,1014.86
2018-06-07T06:29:17.227Z,1014.81
2018-06-07T06:30:17.232Z,1014.86
2018-06-07T06:31:17.233Z,1014.85
2018-06-07T06:32:17.236Z,1014.84
2018-06-07T06:33:17.262Z,1014.83
2018-06-07T06:34:17.244Z,1014.79
2018-06-07T06:35:17.250Z,1014.83
2018-06-07T06:36:17.254Z,1014.81
2018-06-07T06:37:17.254Z,1014.85
2018-06-07T06:38:17.261Z,1014.84
2018-06-07T06:39:17.262Z,1014.85
2018-06-07T06:40:17.265Z,1014.80
2018-06-07T06:41:17.268Z,1014.81
2018-06-07T06:42:17.273Z,1014.88
2018-06-07T06:43:17.274Z,1014.78
2018-06-07T06:44:17.280Z,1014.83
2018-06-07T06:45:17.283Z,1014.81
2018-06-07T06:46:17.285Z,1014.67
2018-06-07T06:47:17.289Z,1014.79
2018-06-07T06:48:17.295Z,1014.79
2018-06-07T06:49:17.355Z,1014.78
2018-06-07T06:50:17.317Z,1014.82
2018-06-07T06:51:17.306Z,1014.79
2018-06-07T06:52:17.321Z,1014.85
2018-06-07T06:53:17.312Z,1014.79
2018-06-07T06:54:17.320Z,1014.85
2018-06-07T06:55:17.319Z,1014.79
2018-06-07T06:56:17.325Z,1014.82
2018-06-07T06:57:17.325Z,1014.79
2018-06-07T06:58:17.330Z,1014.84
2018-06-07T06:59:17.336Z,1014.84
2018-06-07T07:00:17.341Z,1014.80
2018-06-07T07:01:17.345Z,1014.84
2018-06-07T07:02:17.347Z,1014.83
2018-06-07T07:03:17.355Z,1014.78
2018-06-07T07:04:17.380Z,1014.83
2018-06-07T07:05:17.362Z,1014.81
2018-06-07T07:06:17.362Z,1014.81
2018-06-07T07:07:17.368Z,1014.80
2018-06-07T07:08:17.372Z,1014.83
2018-06-07T07:09:17.393Z,1014.85
2018-06-07T07:10:17.382Z,1014.81
2018-06-07T07:11:17.386Z,1014.89
2018-06-07T07:12:17.396Z,1014.86
2018-06-07T07:13:17.397Z,1014.83
2018-06-07T07:14:17.407Z,1014.79
2018-06-07T07:15:17.410Z,1014.81
2018-06-07T07:16:17.413Z,1014.83
2018-06-07T07:17:17.416Z,1014.85
2018-06-07T07:18:17.424Z,1014.85
2018-06-07T07:19:17.426Z,1014.86
2018-06-07T07:20:17.433Z,1014.85
2018-06-07T07:21:17.438Z,1014.85
2018-06-07T07:22:17.444Z,1014.88
2018-06-07T07:23:17.473Z,1014.85
2018-06-07T07:24:17.455Z,1014.86
2018-06-07T07:25:17.460Z,1014.80
2018-06-07T07:26:17.467Z,1014.81
2018-06-07T07:27:17.472Z,1014.81
2018-06-07T07:28:17.477Z,1014.83
2018-06-07T07:29:17.484Z,1014.86
2018-06-07T07:30:17.490Z,1014.83
2018-06-07T07:31:17.495Z,1014.88
2018-06-07T07:32:17.500Z,1014.82
2018-06-07T07:33:17.508Z,1014.82
2018-06-07T07:34:17.514Z,1014.88
2018-06-07T07:35:17.521Z,1014.83
2018-06-07T07:36:17.527Z,1014.85
2018-06-07T07:37:17.534Z,1014.88
2018-06-07T07:38:17.539Z,1014.90
2018-06-07T07:39:17.549Z,1014.84
2018-06-07T07:40:17.553Z,1014.87
2018-06-07T07:41:17.560Z,1014.87
2018-06-07T07:42:17.567Z,1014.86
2018-06-07T07:43:17.575Z,1014.93
2018-06-07T07:44:17.581Z,1014.88
2018-06-07T07:45:17.655Z,1014.85
2018-06-07T07:46:17.594Z,1014.90
2018-06-07T07:47:17.600Z,1014.85
2018-06-07T07:48:17.606Z,1014.84
2018-06-07T07:49:17.615Z,1014.86
2018-06-07T07:50:17.623Z,1014.90
2018-06-07T07:51:17.629Z,1014.86
2018-06-07T07:52:17.637Z,1014.93
2018-06-07T07:53:17.645Z,1014.93
2018-06-07T07:54:17.651Z,1014.97
2018-06-07T07:55:17.661Z,1014.94
2018-06-07T07:56:17.665Z,1014.95
2018-06-07T07:57:17.672Z,1014.96
2018-06-07T07:58:17.682Z,1015.00
2018-06-07T07:59:17.687Z,1014.97
2018-06-07T08:00:17.774Z,1014.94
2018-06-07T08:01:17.703Z,1014.92
2018-06-07T08:02:17.711Z,1014.94
2018-06-07T08:03:17.719Z,1014.93
2018-06-07T08:04:17.727Z,1014.90
2018-06-07T08:05:17.734Z,1014.91
2018-06-07T08:06:17.741Z,1014.95
2018-06-07T08:07:17.749Z,1014.92
2018-06-07T08:08:17.757Z,1015.00
2018-06-07T08:09:17.764Z,1014.95
2018-06-07T08:10:17.776Z,1014.98
2018-06-07T08:11:17.782Z,1014.95
2018-06-07T08:12:17.788Z,1014.98
2018-06-07T08:13:17.796Z,1014.96
2018-06-07T08:14:17.804Z,1014.95
2018-06-07T08:15:17.899Z,1014.95
2018-06-07T08:16:17.823Z,1015.04
2018-06-07T08:17:17.830Z,1014.98
2018-06-07T08:18:17.837Z,1015.04
2018-06-07T08:19:17.845Z,1015.03
2018-06-07T08:20:17.853Z,1014.99
2018-06-07T08:21:17.866Z,1015.01
2018-06-07T08:22:17.867Z,1014.99
2018-06-07T08:23:17.873Z,1014.97
2018-06-07T08:24:17.886Z,1014.96
2018-06-07T08:25:17.894Z,1014.99
2018-06-07T08:26:17.905Z,1014.96
2018-06-07T08:27:17.917Z,1014.91
2018-06-07T08:28:17.918Z,1014.87
2018-06-07T08:29:17.926Z,1014.88
2018-06-07T08:30:17.936Z,1014.94
2018-06-07T08:31:17.942Z,1014.88
2018-06-07T08:32:17.954Z,1014.91
2018-06-07T08:33:17.962Z,1014.93
2018-06-07T08:34:17.969Z,1014.88
2018-06-07T08:35:17.974Z,1014.87
2018-06-07T08:36:17.989Z,1014.91
2018-06-07T08:37:17.995Z,1014.91
2018-06-07T08:38:18.002Z,1014.95
2018-06-07T08:39:18.013Z,1014.90
2018-06-07T08:40:18.019Z,1014.90
2018-06-07T08:41:18.029Z,1014.95
2018-06-07T08:42:18.037Z,1014.91
2018-06-07T08:43:18.044Z,1014.89
2018-06-07T08:44:18.054Z,1014.86
2018-06-07T08:45:18.069Z,1014.90
2018-06-07T08:46:18.078Z,1014.92
2018-06-07T08:47:18.089Z,1014.86
2018-06-07T08:48:18.090Z,1014.84
2018-06-07T08:49:18.095Z,1014.89
2018-06-07T08:50:18.109Z,1014.87
2018-06-07T08:51:18.187Z,1014.86
2018-06-07T08:52:18.127Z,1014.93
2018-06-07T08:53:18.135Z,1014.91
2018-06-07T08:54:18.144Z,1014.86
2018-06-07T08:55:18.153Z,1014.93
2018-06-07T08:56:18.167Z,1014.85
2018-06-07T08:57:18.219Z,1014.84
2018-06-07T08:58:18.178Z,1014.81
2018-06-07T08:59:18.189Z,1014.75
2018-06-07T09:00:18.223Z,1014.77
2018-06-07T09:01:18.235Z,1014.76
2018-06-07T09:02:18.244Z,1014.72
2018-06-07T09:03:18.226Z,1014.66
2018-06-07T09:04:18.229Z,1014.68
2018-06-07T09:05:18.236Z,1014.67
2018-06-07T09:06:18.242Z,1014.70
2018-06-07T09:07:18.249Z,1014.65
2018-06-07T09:08:18.527Z,1014.68
2018-06-07T09:09:18.416Z,1014.74
2018-06-07T09:10:18.269Z,1014.65
2018-06-07T09:11:18.356Z,1014.63
2018-06-07T09:12:18.283Z,1014.65
2018-06-07T09:13:18.392Z,1014.61
2018-06-07T09:14:18.371Z,1014.60
2018-06-07T09:15:18.297Z,1014.53
2018-06-07T09:16:18.305Z,1014.54
2018-06-07T09:17:18.307Z,1014.51
2018-06-07T09:18:18.314Z,1014.54
2018-06-07T09:19:18.318Z,1014.53
2018-06-07T09:20:18.320Z,1014.54
2018-06-07T09:21:18.328Z,1014.51
2018-06-07T09:22:18.335Z,1014.53
2018-06-07T09:23:18.335Z,1014.52
2018-06-07T09:24:18.340Z,1014.52
2018-06-07T09:25:18.345Z,1014.56
2018-06-07T09:26:18.348Z,1014.50
2018-06-07T09:27:18.354Z,1014.47
2018-06-07T09:28:18.361Z,1014.50
2018-06-07T09:29:18.361Z,1014.42
2018-06-07T09:30:18.366Z,1014.45
2018-06-07T09:31:18.369Z,1014.43
2018-06-07T09:32:18.376Z,1014.45
2018-06-07T09:33:18.379Z,1014.43
2018-06-07T09:34:18.385Z,1014.46
2018-06-07T09:35:18.388Z,1014.46
2018-06-07T09:36:18.392Z,1014.40
2018-06-07T09:37:18.395Z,1014.40
2018-06-07T09:38:18.400Z,1014.44
2018-06-07T09:39:18.449Z,1014.39
2018-06-07T09:40:18.408Z,1014.31
2018-06-07T09:41:18.835Z,1014.35
2018-06-07T09:42:18.417Z,1014.31
2018-06-07T09:43:18.421Z,1014.30
2018-06-07T09:44:18.422Z,1014.28
2018-06-07T09:45:18.492Z,1014.27
2018-06-07T09:46:18.433Z,1014.24
2018-06-07T09:47:18.439Z,1014.25
2018-06-07T09:48:18.446Z,1014.23
2018-06-07T09:49:18.450Z,1014.23
2018-06-07T09:50:18.447Z,1014.22
2018-06-07T09:51:18.452Z,1014.25
2018-06-07T09:52:18.458Z,1014.22
2018-06-07T09:53:18.461Z,1014.20
2018-06-07T09:54:18.468Z,1014.24
2018-06-07T09:55:18.469Z,1014.27
2018-06-07T09:56:18.472Z,1014.23
2018-06-07T09:57:18.484Z,1014.12
2018-06-07T09:58:18.488Z,1014.13
2018-06-07T09:59:18.484Z,1014.12
2018-06-07T10:00:18.489Z,1014.13
2018-06-07T10:01:18.490Z,1014.05
2018-06-07T10:02:18.496Z,1014.12
2018-06-07T10:03:18.601Z,1014.15
2018-06-07T10:04:18.508Z,1014.13
2018-06-07T10:05:18.510Z,1014.13
2018-06-07T10:06:18.513Z,1014.10
2018-06-07T10:07:18.521Z,1014.14
2018-06-07T10:08:18.519Z,1014.14
2018-06-07T10:09:18.551Z,1014.12
2018-06-07T10:10:18.527Z,1014.11
2018-06-07T10:11:18.631Z,1014.09
2018-06-07T10:12:18.708Z,1014.12
2018-06-07T10:13:18.536Z,1014.05
2018-06-07T10:14:18.541Z,1014.02
2018-06-07T10:15:18.550Z,1014.00
2018-06-07T10:16:18.643Z,1014.02
2018-06-07T10:17:18.555Z,1013.99
2018-06-07T10:18:18.558Z,1013.93
2018-06-07T10:19:18.585Z,1013.94
2018-06-07T10:20:18.570Z,1014.00
2018-06-07T10:21:18.570Z,1013.98
2018-06-07T10:22:18.574Z,1014.03
2018-06-07T10:23:18.668Z,1014.06
2018-06-07T10:24:18.581Z,1014.01
2018-06-07T10:25:18.589Z,1014.01
2018-06-07T10:26:18.592Z,1014.04
2018-06-07T10:27:18.592Z,1013.99
2018-06-07T10:28:18.597Z,1014.03
2018-06-07T10:29:18.652Z,1014.00
2018-06-07T10:30:18.605Z,1013.99
2018-06-07T10:31:18.611Z,1014.00
2018-06-07T10:32:18.634Z,1013.90
2018-06-07T10:33:18.617Z,1014.00
2018-06-07T10:34:18.620Z,1013.99
2018-06-07T10:35:18.632Z,1013.99
2018-06-07T10:36:18.629Z,1014.01
2018-06-07T10:37:18.632Z,1013.90
2018-06-07T10:38:18.638Z,1013.93
2018-06-07T10:39:18.643Z,1013.94
2018-06-07T10:40:18.642Z,1013.92
2018-06-07T10:41:18.650Z,1013.85
2018-06-07T10:42:18.655Z,1013.88
2018-06-07T10:43:18.652Z,1013.88
2018-06-07T10:44:18.659Z,1013.94
2018-06-07T10:45:18.662Z,1013.86
2018-06-07T10:46:18.814Z,1013.87
2018-06-07T10:47:18.783Z,1013.90
2018-06-07T10:48:18.675Z,1013.91
2018-06-07T10:49:18.679Z,1013.91
2018-06-07T10:50:18.723Z,1013.89
2018-06-07T10:51:18.686Z,1013.86
2018-06-07T10:52:18.691Z,1013.85
2018-06-07T10:53:18.693Z,1013.85
2018-06-07T10:54:18.877Z,1013.83
2018-06-07T10:55:18.749Z,1013.83
2018-06-07T10:56:18.704Z,1013.86
2018-06-07T10:57:18.710Z,1013.85
2018-06-07T10:58:18.711Z,1013.82
2018-06-07T10:59:18.715Z,1013.89
2018-06-07T11:00:18.751Z,1013.87
2018-06-07T11:01:18.728Z,1013.87
2018-06-07T11:02:19.098Z,1013.90
2018-06-07T11:03:18.732Z,1013.85
2018-06-07T11:04:18.740Z,1013.83
2018-06-07T11:05:18.740Z,1013.78
2018-06-07T11:06:18.806Z,1013.81
2018-06-07T11:07:18.748Z,1013.81
2018-06-07T11:08:18.754Z,1013.72
2018-06-07T11:09:18.813Z,1013.72
2018-06-07T11:10:18.761Z,1013.72
2018-06-07T11:11:18.934Z,1013.76
2018-06-07T11:12:18.771Z,1013.77
2018-06-07T11:13:18.772Z,1013.74
2018-06-07T11:14:18.777Z,1013.73
2018-06-07T11:15:18.780Z,1013.73
2018-06-07T11:16:18.785Z,1013.75
2018-06-07T11:17:18.798Z,1013.70
2018-06-07T11:18:18.795Z,1013.67
2018-06-07T11:19:18.801Z,1013.66
2018-06-07T11:20:18.807Z,1013.66
2018-06-07T11:21:18.805Z,1013.65
2018-06-07T11:22:18.809Z,1013.67
2018-06-07T11:23:18.813Z,1013.67
2018-06-07T11:24:18.823Z,1013.58
2018-06-07T11:25:18.983Z,1013.55
2018-06-07T11:26:18.973Z,1013.58
2018-06-07T11:27:18.829Z,1013.53
2018-06-07T11:28:18.832Z,1013.60
2018-06-07T11:29:18.884Z,1013.59
2018-06-07T11:30:18.875Z,1013.58
2018-06-07T11:31:18.936Z,1013.57
2018-06-07T11:32:18.850Z,1013.57
2018-06-07T11:33:18.854Z,1013.56
2018-06-07T11:34:18.970Z,1013.52
2018-06-07T11:35:18.861Z,1013.54
2018-06-07T11:36:18.865Z,1013.53
2018-06-07T11:37:18.870Z,1013.55
2018-06-07T11:38:19.048Z,1013.49
2018-06-07T11:39:18.932Z,1013.44
2018-06-07T11:40:18.890Z,1013.42
2018-06-07T11:41:18.888Z,1013.43
2018-06-07T11:42:18.907Z,1013.40
2018-06-07T11:43:18.897Z,1013.41
2018-06-07T11:44:18.901Z,1013.41
2018-06-07T11:45:18.907Z,1013.37
2018-06-07T11:46:18.954Z,1013.36
2018-06-07T11:47:18.917Z,1013.31
2018-06-07T11:48:18.920Z,1013.41
2018-06-07T11:49:18.922Z,1013.37
2018-06-07T11:50:18.928Z,1013.30
2018-06-07T11:51:18.946Z,1013.34
2018-06-07T11:52:18.939Z,1013.37
2018-06-07T11:53:18.944Z,1013.31
2018-06-07T11:54:19.095Z,1013.40
2018-06-07T11:55:18.951Z,1013.38
2018-06-07T11:56:18.964Z,1013.35
2018-06-07T11:57:18.959Z,1013.37
2018-06-07T11:58:18.963Z,1013.37
2018-06-07T11:59:18.969Z,1013.36
2018-06-07T12:00:18.969Z,1013.30
2018-06-07T12:01:19.015Z,1013.30
2018-06-07T12:02:18.983Z,1013.27
2018-06-07T12:03:18.984Z,1013.24
2018-06-07T12:04:19.105Z,1013.24
2018-06-07T12:05:19.001Z,1013.26